sensor_id;sensor_type;location;lat;lon;timestamp;temperature;humidity
78876;DHT22;68253;52.506;5.486;2023-08-06T00:00:50;15.50;76.50
78876;DHT22;68253;52.506;5.486;2023-08-06T00:03:16;15.50;76.60
78876;DHT22;68253;52.506;5.486;2023-08-06T00:05:42;15.60;76.50
78876;DHT22;68253;52.506;5.486;2023-08-06T00:08:09;15.60;76.50
78876;DHT22;68253;52.506;5.486;2023-08-06T00:10:35;15.50;76.50
78876;DHT22;68253;52.506;5.486;2023-08-06T00:13:01;15.50;76.50
78876;DHT22;68253;52.506;5.486;2023-08-06T00:15:28;15.60;76.50
78876;DHT22;68253;52.506;5.486;2023-08-06T00:17:54;15.50;76.60
78876;DHT22;68253;52.506;5.486;2023-08-06T00:20:20;15.60;76.60
78876;DHT22;68253;52.506;5.486;2023-08-06T00:22:46;15.60;76.60
78876;DHT22;68253;52.506;5.486;2023-08-06T00:25:12;15.60;76.70
78876;DHT22;68253;52.506;5.486;2023-08-06T00:27:39;15.60;76.60
78876;DHT22;68253;52.506;5.486;2023-08-06T00:30:05;15.60;76.50
78876;DHT22;68253;52.506;5.486;2023-08-06T00:32:31;15.60;76.60
78876;DHT22;68253;52.506;5.486;2023-08-06T00:34:58;15.60;76.50
78876;DHT22;68253;52.506;5.486;2023-08-06T00:37:24;15.60;76.50
78876;DHT22;68253;52.506;5.486;2023-08-06T00:39:50;15.60;76.50
78876;DHT22;68253;52.506;5.486;2023-08-06T00:42:16;15.60;76.50
78876;DHT22;68253;52.506;5.486;2023-08-06T00:44:46;15.60;76.50
78876;DHT22;68253;52.506;5.486;2023-08-06T00:47:13;15.60;76.60
78876;DHT22;68253;52.506;5.486;2023-08-06T00:49:39;15.60;76.50
78876;DHT22;68253;52.506;5.486;2023-08-06T00:52:07;15.50;76.50
78876;DHT22;68253;52.506;5.486;2023-08-06T00:54:36;15.50;76.60
78876;DHT22;68253;52.506;5.486;2023-08-06T00:57:03;15.50;76.60
78876;DHT22;68253;52.506;5.486;2023-08-06T00:59:31;15.50;76.50
78876;DHT22;68253;52.506;5.486;2023-08-06T01:01:57;15.50;76.60
78876;DHT22;68253;52.506;5.486;2023-08-06T01:04:24;15.50;76.60
78876;DHT22;68253;52.506;5.486;2023-08-06T01:09:50;15.50;76.60
78876;DHT22;68253;52.506;5.486;2023-08-06T01:12:34;15.50;76.70
78876;DHT22;68253;52.506;5.486;2023-08-06T01:17:31;15.50;76.70
78876;DHT22;68253;52.506;5.486;2023-08-06T01:19:58;15.50;76.80
78876;DHT22;68253;52.506;5.486;2023-08-06T01:22:24;15.50;76.80
78876;DHT22;68253;52.506;5.486;2023-08-06T01:24:51;15.50;76.80
78876;DHT22;68253;52.506;5.486;2023-08-06T01:27:34;15.50;76.90
78876;DHT22;68253;52.506;5.486;2023-08-06T01:30:04;15.50;76.90
78876;DHT22;68253;52.506;5.486;2023-08-06T01:32:34;15.50;76.90
78876;DHT22;68253;52.506;5.486;2023-08-06T01:35:02;15.50;76.90
78876;DHT22;68253;52.506;5.486;2023-08-06T01:37:30;15.50;76.90
78876;DHT22;68253;52.506;5.486;2023-08-06T01:39:56;15.50;76.90
78876;DHT22;68253;52.506;5.486;2023-08-06T01:42:22;15.50;77.00
78876;DHT22;68253;52.506;5.486;2023-08-06T01:44:48;15.60;76.90
78876;DHT22;68253;52.506;5.486;2023-08-06T01:47:14;15.60;77.00
78876;DHT22;68253;52.506;5.486;2023-08-06T01:49:40;15.60;77.10
78876;DHT22;68253;52.506;5.486;2023-08-06T01:52:07;15.50;77.00
78876;DHT22;68253;52.506;5.486;2023-08-06T01:54:33;15.60;77.10
78876;DHT22;68253;52.506;5.486;2023-08-06T01:56:59;15.60;77.00
78876;DHT22;68253;52.506;5.486;2023-08-06T01:59:25;15.60;77.10
78876;DHT22;68253;52.506;5.486;2023-08-06T02:01:51;15.60;77.00
78876;DHT22;68253;52.506;5.486;2023-08-06T02:04:17;15.60;77.00
78876;DHT22;68253;52.506;5.486;2023-08-06T02:06:44;15.60;77.00
78876;DHT22;68253;52.506;5.486;2023-08-06T02:09:11;15.60;76.90
78876;DHT22;68253;52.506;5.486;2023-08-06T02:11:37;15.60;76.90
78876;DHT22;68253;52.506;5.486;2023-08-06T02:14:03;15.60;77.00
78876;DHT22;68253;52.506;5.486;2023-08-06T02:16:29;15.60;77.00
78876;DHT22;68253;52.506;5.486;2023-08-06T02:18:55;15.60;77.00
78876;DHT22;68253;52.506;5.486;2023-08-06T02:21:21;15.60;77.00
78876;DHT22;68253;52.506;5.486;2023-08-06T02:23:47;15.60;77.10
78876;DHT22;68253;52.506;5.486;2023-08-06T02:26:13;15.60;77.10
78876;DHT22;68253;52.506;5.486;2023-08-06T02:28:40;15.60;77.00
78876;DHT22;68253;52.506;5.486;2023-08-06T02:31:06;15.60;77.00
78876;DHT22;68253;52.506;5.486;2023-08-06T02:33:32;15.60;77.00
78876;DHT22;68253;52.506;5.486;2023-08-06T02:36:00;15.60;77.00
78876;DHT22;68253;52.506;5.486;2023-08-06T02:38:27;15.60;77.00
78876;DHT22;68253;52.506;5.486;2023-08-06T02:40:53;15.60;77.00
78876;DHT22;68253;52.506;5.486;2023-08-06T02:43:19;15.60;76.90
78876;DHT22;68253;52.506;5.486;2023-08-06T02:45:45;15.60;76.90
78876;DHT22;68253;52.506;5.486;2023-08-06T02:48:11;15.60;76.90
78876;DHT22;68253;52.506;5.486;2023-08-06T02:50:41;15.60;76.90
78876;DHT22;68253;52.506;5.486;2023-08-06T02:53:08;15.60;76.90
78876;DHT22;68253;52.506;5.486;2023-08-06T02:55:36;15.60;76.90
78876;DHT22;68253;52.506;5.486;2023-08-06T02:58:06;15.60;76.90
78876;DHT22;68253;52.506;5.486;2023-08-06T03:00:37;15.60;77.00
78876;DHT22;68253;52.506;5.486;2023-08-06T03:03:05;15.60;77.00
78876;DHT22;68253;52.506;5.486;2023-08-06T03:05:57;15.60;77.00
78876;DHT22;68253;52.506;5.486;2023-08-06T03:08:33;15.60;77.00
78876;DHT22;68253;52.506;5.486;2023-08-06T03:11:00;15.60;77.00
78876;DHT22;68253;52.506;5.486;2023-08-06T03:13:26;15.60;76.90
78876;DHT22;68253;52.506;5.486;2023-08-06T03:15:59;15.60;76.90
78876;DHT22;68253;52.506;5.486;2023-08-06T03:18:27;15.60;76.80
78876;DHT22;68253;52.506;5.486;2023-08-06T03:20:55;15.60;76.80
78876;DHT22;68253;52.506;5.486;2023-08-06T03:23:22;15.60;76.80
78876;DHT22;68253;52.506;5.486;2023-08-06T03:25:49;15.60;76.80
78876;DHT22;68253;52.506;5.486;2023-08-06T03:28:16;15.60;76.80
78876;DHT22;68253;52.506;5.486;2023-08-06T03:30:43;15.60;76.70
78876;DHT22;68253;52.506;5.486;2023-08-06T03:33:11;15.60;76.70
78876;DHT22;68253;52.506;5.486;2023-08-06T03:35:38;15.60;76.80
78876;DHT22;68253;52.506;5.486;2023-08-06T03:38:04;15.60;76.80
78876;DHT22;68253;52.506;5.486;2023-08-06T03:40:30;15.60;76.80
78876;DHT22;68253;52.506;5.486;2023-08-06T03:42:58;15.60;76.80
78876;DHT22;68253;52.506;5.486;2023-08-06T03:45:24;15.50;76.70
78876;DHT22;68253;52.506;5.486;2023-08-06T03:47:50;15.50;76.70
78876;DHT22;68253;52.506;5.486;2023-08-06T03:50:17;15.50;76.90
78876;DHT22;68253;52.506;5.486;2023-08-06T03:52:44;15.50;76.80
78876;DHT22;68253;52.506;5.486;2023-08-06T03:55:11;15.50;76.80
78876;DHT22;68253;52.506;5.486;2023-08-06T03:57:37;15.50;76.80
78876;DHT22;68253;52.506;5.486;2023-08-06T04:00:04;15.50;76.80
78876;DHT22;68253;52.506;5.486;2023-08-06T04:02:41;15.40;76.80
78876;DHT22;68253;52.506;5.486;2023-08-06T04:05:08;15.40;76.90
78876;DHT22;68253;52.506;5.486;2023-08-06T04:07:34;15.40;76.90
78876;DHT22;68253;52.506;5.486;2023-08-06T04:10:02;15.40;76.80
78876;DHT22;68253;52.506;5.486;2023-08-06T04:12:29;15.40;76.80
78876;DHT22;68253;52.506;5.486;2023-08-06T04:14:58;15.40;76.80
78876;DHT22;68253;52.506;5.486;2023-08-06T04:17:24;15.30;76.80
78876;DHT22;68253;52.506;5.486;2023-08-06T04:19:52;15.30;76.90
78876;DHT22;68253;52.506;5.486;2023-08-06T04:22:19;15.30;77.00
78876;DHT22;68253;52.506;5.486;2023-08-06T04:24:45;15.30;77.00
78876;DHT22;68253;52.506;5.486;2023-08-06T04:27:12;15.30;77.00
78876;DHT22;68253;52.506;5.486;2023-08-06T04:29:39;15.30;77.00
78876;DHT22;68253;52.506;5.486;2023-08-06T04:32:08;15.40;77.00
78876;DHT22;68253;52.506;5.486;2023-08-06T04:34:36;15.40;77.10
78876;DHT22;68253;52.506;5.486;2023-08-06T04:37:03;15.40;77.00
78876;DHT22;68253;52.506;5.486;2023-08-06T04:39:30;15.40;77.00
78876;DHT22;68253;52.506;5.486;2023-08-06T04:41:57;15.50;77.00
78876;DHT22;68253;52.506;5.486;2023-08-06T04:44:24;15.50;76.90
78876;DHT22;68253;52.506;5.486;2023-08-06T04:46:50;15.50;77.00
78876;DHT22;68253;52.506;5.486;2023-08-06T04:49:17;15.50;77.00
78876;DHT22;68253;52.506;5.486;2023-08-06T04:51:43;15.60;77.00
78876;DHT22;68253;52.506;5.486;2023-08-06T04:54:10;15.60;76.90
78876;DHT22;68253;52.506;5.486;2023-08-06T04:56:36;15.60;76.90
78876;DHT22;68253;52.506;5.486;2023-08-06T04:59:02;15.60;76.90
78876;DHT22;68253;52.506;5.486;2023-08-06T05:01:28;15.60;76.80
78876;DHT22;68253;52.506;5.486;2023-08-06T05:03:54;15.60;76.80
78876;DHT22;68253;52.506;5.486;2023-08-06T05:06:21;15.60;76.90
78876;DHT22;68253;52.506;5.486;2023-08-06T05:08:47;15.60;76.80
78876;DHT22;68253;52.506;5.486;2023-08-06T05:11:13;15.60;76.80
78876;DHT22;68253;52.506;5.486;2023-08-06T05:13:39;15.60;76.80
78876;DHT22;68253;52.506;5.486;2023-08-06T05:16:05;15.60;76.80
78876;DHT22;68253;52.506;5.486;2023-08-06T05:18:31;15.60;76.80
78876;DHT22;68253;52.506;5.486;2023-08-06T05:20:57;15.60;76.80
78876;DHT22;68253;52.506;5.486;2023-08-06T05:23:23;15.60;76.90
78876;DHT22;68253;52.506;5.486;2023-08-06T05:25:50;15.60;76.80
78876;DHT22;68253;52.506;5.486;2023-08-06T05:28:16;15.70;76.70
78876;DHT22;68253;52.506;5.486;2023-08-06T05:30:42;15.80;76.70
78876;DHT22;68253;52.506;5.486;2023-08-06T05:33:08;15.80;76.70
78876;DHT22;68253;52.506;5.486;2023-08-06T05:35:34;15.80;76.80
78876;DHT22;68253;52.506;5.486;2023-08-06T05:38:00;15.80;76.80
78876;DHT22;68253;52.506;5.486;2023-08-06T05:40:27;15.80;76.80
78876;DHT22;68253;52.506;5.486;2023-08-06T05:42:56;15.80;76.80
78876;DHT22;68253;52.506;5.486;2023-08-06T05:45:22;15.90;76.80
78876;DHT22;68253;52.506;5.486;2023-08-06T05:47:48;15.90;76.80
78876;DHT22;68253;52.506;5.486;2023-08-06T05:50:15;15.90;76.90
78876;DHT22;68253;52.506;5.486;2023-08-06T05:52:41;16.00;76.80
78876;DHT22;68253;52.506;5.486;2023-08-06T05:55:07;16.00;76.80
78876;DHT22;68253;52.506;5.486;2023-08-06T05:57:34;16.10;76.80
78876;DHT22;68253;52.506;5.486;2023-08-06T06:00:00;16.10;76.80
78876;DHT22;68253;52.506;5.486;2023-08-06T06:02:27;16.10;76.70
78876;DHT22;68253;52.506;5.486;2023-08-06T06:04:53;16.20;76.80
78876;DHT22;68253;52.506;5.486;2023-08-06T06:07:19;16.30;76.70
78876;DHT22;68253;52.506;5.486;2023-08-06T06:09:45;16.30;76.60
78876;DHT22;68253;52.506;5.486;2023-08-06T06:12:11;16.40;76.60
78876;DHT22;68253;52.506;5.486;2023-08-06T06:14:37;16.40;76.50
78876;DHT22;68253;52.506;5.486;2023-08-06T06:17:04;16.40;76.60
78876;DHT22;68253;52.506;5.486;2023-08-06T06:19:30;16.40;76.60
78876;DHT22;68253;52.506;5.486;2023-08-06T06:21:56;16.50;76.50
78876;DHT22;68253;52.506;5.486;2023-08-06T06:24:23;16.50;76.50
78876;DHT22;68253;52.506;5.486;2023-08-06T06:26:49;16.60;76.50
78876;DHT22;68253;52.506;5.486;2023-08-06T06:29:15;16.60;76.40
78876;DHT22;68253;52.506;5.486;2023-08-06T06:31:42;16.70;76.40
78876;DHT22;68253;52.506;5.486;2023-08-06T06:34:08;16.70;76.30
78876;DHT22;68253;52.506;5.486;2023-08-06T06:36:34;16.70;76.10
78876;DHT22;68253;52.506;5.486;2023-08-06T06:39:00;16.80;76.20
78876;DHT22;68253;52.506;5.486;2023-08-06T06:41:26;16.80;76.20
78876;DHT22;68253;52.506;5.486;2023-08-06T06:43:52;16.90;76.20
78876;DHT22;68253;52.506;5.486;2023-08-06T06:46:18;17.00;76.00
78876;DHT22;68253;52.506;5.486;2023-08-06T06:48:44;17.10;75.90
78876;DHT22;68253;52.506;5.486;2023-08-06T06:51:10;17.20;75.70
78876;DHT22;68253;52.506;5.486;2023-08-06T06:53:37;17.40;75.70
78876;DHT22;68253;52.506;5.486;2023-08-06T06:56:04;17.50;75.60
78876;DHT22;68253;52.506;5.486;2023-08-06T06:58:31;17.60;75.30
78876;DHT22;68253;52.506;5.486;2023-08-06T07:00:57;17.80;75.10
78876;DHT22;68253;52.506;5.486;2023-08-06T07:03:24;17.80;74.80
78876;DHT22;68253;52.506;5.486;2023-08-06T07:05:50;17.90;74.70
78876;DHT22;68253;52.506;5.486;2023-08-06T07:08:16;17.90;74.50
78876;DHT22;68253;52.506;5.486;2023-08-06T07:10:43;17.80;74.40
78876;DHT22;68253;52.506;5.486;2023-08-06T07:13:09;17.80;74.40
78876;DHT22;68253;52.506;5.486;2023-08-06T07:15:36;17.80;74.50
78876;DHT22;68253;52.506;5.486;2023-08-06T07:18:02;17.80;74.40
78876;DHT22;68253;52.506;5.486;2023-08-06T07:20:28;17.80;74.30
78876;DHT22;68253;52.506;5.486;2023-08-06T07:22:59;17.80;74.20
78876;DHT22;68253;52.506;5.486;2023-08-06T07:25:25;17.80;74.30
78876;DHT22;68253;52.506;5.486;2023-08-06T07:27:51;17.80;74.40
78876;DHT22;68253;52.506;5.486;2023-08-06T07:30:17;17.80;74.40
78876;DHT22;68253;52.506;5.486;2023-08-06T07:32:43;17.80;74.40
78876;DHT22;68253;52.506;5.486;2023-08-06T07:35:09;17.80;74.50
78876;DHT22;68253;52.506;5.486;2023-08-06T07:37:39;17.80;74.40
78876;DHT22;68253;52.506;5.486;2023-08-06T07:40:05;17.80;74.20
78876;DHT22;68253;52.506;5.486;2023-08-06T07:42:32;17.80;74.10
78876;DHT22;68253;52.506;5.486;2023-08-06T07:44:58;17.70;74.20
78876;DHT22;68253;52.506;5.486;2023-08-06T07:47:25;17.80;74.30
78876;DHT22;68253;52.506;5.486;2023-08-06T07:49:52;17.80;74.30
78876;DHT22;68253;52.506;5.486;2023-08-06T07:52:18;17.80;74.20
78876;DHT22;68253;52.506;5.486;2023-08-06T07:54:44;17.80;74.20
78876;DHT22;68253;52.506;5.486;2023-08-06T07:57:10;17.80;74.10
78876;DHT22;68253;52.506;5.486;2023-08-06T07:59:37;17.80;74.20
78876;DHT22;68253;52.506;5.486;2023-08-06T08:02:03;17.80;74.10
78876;DHT22;68253;52.506;5.486;2023-08-06T08:04:30;17.80;74.20
78876;DHT22;68253;52.506;5.486;2023-08-06T08:06:56;17.80;74.10
78876;DHT22;68253;52.506;5.486;2023-08-06T08:09:22;17.90;74.10
78876;DHT22;68253;52.506;5.486;2023-08-06T08:11:48;18.00;73.90
78876;DHT22;68253;52.506;5.486;2023-08-06T08:14:14;18.00;73.80
78876;DHT22;68253;52.506;5.486;2023-08-06T08:16:40;18.00;73.70
78876;DHT22;68253;52.506;5.486;2023-08-06T08:19:06;18.00;73.70
78876;DHT22;68253;52.506;5.486;2023-08-06T08:21:32;18.00;73.70
78876;DHT22;68253;52.506;5.486;2023-08-06T08:24:00;18.00;73.80
78876;DHT22;68253;52.506;5.486;2023-08-06T08:26:26;18.00;73.60
78876;DHT22;68253;52.506;5.486;2023-08-06T08:28:54;17.90;73.50
78876;DHT22;68253;52.506;5.486;2023-08-06T08:31:20;17.90;73.60
78876;DHT22;68253;52.506;5.486;2023-08-06T08:33:46;17.90;73.60
78876;DHT22;68253;52.506;5.486;2023-08-06T08:36:12;17.90;73.70
78876;DHT22;68253;52.506;5.486;2023-08-06T08:38:38;18.00;73.80
78876;DHT22;68253;52.506;5.486;2023-08-06T08:41:04;18.00;73.80
78876;DHT22;68253;52.506;5.486;2023-08-06T08:43:31;18.10;73.90
78876;DHT22;68253;52.506;5.486;2023-08-06T08:45:58;18.20;73.80
78876;DHT22;68253;52.506;5.486;2023-08-06T08:48:25;18.30;73.40
78876;DHT22;68253;52.506;5.486;2023-08-06T08:50:52;18.30;73.20
78876;DHT22;68253;52.506;5.486;2023-08-06T08:53:18;18.30;73.00
78876;DHT22;68253;52.506;5.486;2023-08-06T08:55:49;18.40;73.00
78876;DHT22;68253;52.506;5.486;2023-08-06T08:58:15;18.30;72.90
78876;DHT22;68253;52.506;5.486;2023-08-06T09:00:42;18.30;72.70
78876;DHT22;68253;52.506;5.486;2023-08-06T09:03:08;18.30;72.80
78876;DHT22;68253;52.506;5.486;2023-08-06T09:05:35;18.30;72.90
78876;DHT22;68253;52.506;5.486;2023-08-06T09:08:03;18.30;72.90
78876;DHT22;68253;52.506;5.486;2023-08-06T09:10:29;18.40;72.80
78876;DHT22;68253;52.506;5.486;2023-08-06T09:12:57;18.50;72.70
78876;DHT22;68253;52.506;5.486;2023-08-06T09:15:27;18.70;72.70
78876;DHT22;68253;52.506;5.486;2023-08-06T09:17:53;18.90;72.70
78876;DHT22;68253;52.506;5.486;2023-08-06T09:20:20;19.10;72.40
78876;DHT22;68253;52.506;5.486;2023-08-06T09:22:47;19.20;71.80
78876;DHT22;68253;52.506;5.486;2023-08-06T09:25:22;19.20;71.40
78876;DHT22;68253;52.506;5.486;2023-08-06T09:27:51;19.20;71.10
78876;DHT22;68253;52.506;5.486;2023-08-06T09:30:32;19.00;71.40
78876;DHT22;68253;52.506;5.486;2023-08-06T09:32:59;18.90;71.60
78876;DHT22;68253;52.506;5.486;2023-08-06T09:35:28;18.80;71.80
78876;DHT22;68253;52.506;5.486;2023-08-06T09:37:54;18.70;71.80
78876;DHT22;68253;52.506;5.486;2023-08-06T09:40:30;18.50;72.10
78876;DHT22;68253;52.506;5.486;2023-08-06T09:42:57;18.50;72.10
78876;DHT22;68253;52.506;5.486;2023-08-06T09:45:34;18.40;72.20
78876;DHT22;68253;52.506;5.486;2023-08-06T09:48:04;18.30;72.10
78876;DHT22;68253;52.506;5.486;2023-08-06T09:50:31;18.30;72.20
78876;DHT22;68253;52.506;5.486;2023-08-06T09:53:01;18.30;72.30
78876;DHT22;68253;52.506;5.486;2023-08-06T09:55:28;18.40;72.40
78876;DHT22;68253;52.506;5.486;2023-08-06T09:57:55;18.50;72.20
78876;DHT22;68253;52.506;5.486;2023-08-06T10:00:22;18.60;71.90
78876;DHT22;68253;52.506;5.486;2023-08-06T10:02:49;18.70;71.60
78876;DHT22;68253;52.506;5.486;2023-08-06T10:05:18;18.90;71.40
78876;DHT22;68253;52.506;5.486;2023-08-06T10:07:44;19.10;71.40
78876;DHT22;68253;52.506;5.486;2023-08-06T10:10:11;19.30;71.10
78876;DHT22;68253;52.506;5.486;2023-08-06T10:12:45;19.50;71.00
78876;DHT22;68253;52.506;5.486;2023-08-06T10:15:17;19.70;70.80
78876;DHT22;68253;52.506;5.486;2023-08-06T10:17:47;19.90;70.40
78876;DHT22;68253;52.506;5.486;2023-08-06T10:20:14;20.00;70.00
78876;DHT22;68253;52.506;5.486;2023-08-06T10:22:44;20.00;69.40
78876;DHT22;68253;52.506;5.486;2023-08-06T10:25:11;20.10;69.00
78876;DHT22;68253;52.506;5.486;2023-08-06T10:27:53;20.10;69.00
78876;DHT22;68253;52.506;5.486;2023-08-06T10:30:24;20.10;68.70
78876;DHT22;68253;52.506;5.486;2023-08-06T10:32:53;20.10;68.50
78876;DHT22;68253;52.506;5.486;2023-08-06T10:35:35;20.00;68.40
78876;DHT22;68253;52.506;5.486;2023-08-06T10:38:07;19.90;68.50
78876;DHT22;68253;52.506;5.486;2023-08-06T10:40:33;19.70;68.70
78876;DHT22;68253;52.506;5.486;2023-08-06T10:43:01;19.40;68.70
78876;DHT22;68253;52.506;5.486;2023-08-06T10:45:28;19.10;69.00
78876;DHT22;68253;52.506;5.486;2023-08-06T10:47:57;19.00;69.20
78876;DHT22;68253;52.506;5.486;2023-08-06T10:50:24;18.90;69.00
78876;DHT22;68253;52.506;5.486;2023-08-06T10:52:51;18.80;69.20
78876;DHT22;68253;52.506;5.486;2023-08-06T10:55:28;18.70;69.00
78876;DHT22;68253;52.506;5.486;2023-08-06T10:57:55;18.50;69.30
78876;DHT22;68253;52.506;5.486;2023-08-06T11:00:23;18.40;69.70
78876;DHT22;68253;52.506;5.486;2023-08-06T11:02:51;18.10;70.10
78876;DHT22;68253;52.506;5.486;2023-08-06T11:05:17;18.00;70.10
78876;DHT22;68253;52.506;5.486;2023-08-06T11:07:43;17.70;70.70
78876;DHT22;68253;52.506;5.486;2023-08-06T11:10:12;17.50;71.00
78876;DHT22;68253;52.506;5.486;2023-08-06T11:12:39;17.40;71.70
78876;DHT22;68253;52.506;5.486;2023-08-06T11:15:06;17.20;72.00
78876;DHT22;68253;52.506;5.486;2023-08-06T11:17:33;17.10;72.20
78876;DHT22;68253;52.506;5.486;2023-08-06T11:20:01;17.00;72.40
78876;DHT22;68253;52.506;5.486;2023-08-06T11:22:28;17.00;72.60
78876;DHT22;68253;52.506;5.486;2023-08-06T11:24:54;16.90;72.80
78876;DHT22;68253;52.506;5.486;2023-08-06T11:27:20;16.90;72.90
78876;DHT22;68253;52.506;5.486;2023-08-06T11:29:47;16.90;72.90
78876;DHT22;68253;52.506;5.486;2023-08-06T11:32:13;16.80;72.90
78876;DHT22;68253;52.506;5.486;2023-08-06T11:34:40;16.80;73.10
78876;DHT22;68253;52.506;5.486;2023-08-06T11:37:07;16.80;73.20
78876;DHT22;68253;52.506;5.486;2023-08-06T11:39:34;16.70;73.30
78876;DHT22;68253;52.506;5.486;2023-08-06T11:42:03;16.60;73.40
78876;DHT22;68253;52.506;5.486;2023-08-06T11:44:41;16.60;73.60
78876;DHT22;68253;52.506;5.486;2023-08-06T11:47:17;16.60;73.80
78876;DHT22;68253;52.506;5.486;2023-08-06T11:49:44;16.60;73.90
78876;DHT22;68253;52.506;5.486;2023-08-06T11:54:39;16.60;74.00
78876;DHT22;68253;52.506;5.486;2023-08-06T11:57:06;16.60;74.00
78876;DHT22;68253;52.506;5.486;2023-08-06T11:59:32;16.60;74.00
78876;DHT22;68253;52.506;5.486;2023-08-06T12:02:03;16.60;74.00
78876;DHT22;68253;52.506;5.486;2023-08-06T12:07:32;16.50;73.90
78876;DHT22;68253;52.506;5.486;2023-08-06T12:09:59;16.50;74.00
78876;DHT22;68253;52.506;5.486;2023-08-06T12:12:25;16.40;74.00
78876;DHT22;68253;52.506;5.486;2023-08-06T12:14:51;16.50;73.70
78876;DHT22;68253;52.506;5.486;2023-08-06T12:17:18;16.40;73.70
78876;DHT22;68253;52.506;5.486;2023-08-06T12:19:45;16.40;73.70
78876;DHT22;68253;52.506;5.486;2023-08-06T12:22:12;16.40;73.30
78876;DHT22;68253;52.506;5.486;2023-08-06T12:24:41;16.40;73.40
78876;DHT22;68253;52.506;5.486;2023-08-06T12:27:07;16.40;73.20
78876;DHT22;68253;52.506;5.486;2023-08-06T12:29:33;16.40;73.30
78876;DHT22;68253;52.506;5.486;2023-08-06T12:32:00;16.50;73.10
78876;DHT22;68253;52.506;5.486;2023-08-06T12:34:26;16.40;73.20
78876;DHT22;68253;52.506;5.486;2023-08-06T12:36:52;16.40;73.20
78876;DHT22;68253;52.506;5.486;2023-08-06T12:39:18;16.50;73.00
78876;DHT22;68253;52.506;5.486;2023-08-06T12:41:45;16.50;72.90
78876;DHT22;68253;52.506;5.486;2023-08-06T12:44:12;16.40;73.00
78876;DHT22;68253;52.506;5.486;2023-08-06T12:46:38;16.50;73.20
78876;DHT22;68253;52.506;5.486;2023-08-06T12:49:04;16.60;73.20
78876;DHT22;68253;52.506;5.486;2023-08-06T12:51:31;16.70;73.20
78876;DHT22;68253;52.506;5.486;2023-08-06T12:53:57;16.80;73.20
78876;DHT22;68253;52.506;5.486;2023-08-06T12:56:23;17.00;73.20
78876;DHT22;68253;52.506;5.486;2023-08-06T12:58:49;17.20;73.00
78876;DHT22;68253;52.506;5.486;2023-08-06T13:01:15;17.30;72.70
78876;DHT22;68253;52.506;5.486;2023-08-06T13:03:41;17.50;72.40
78876;DHT22;68253;52.506;5.486;2023-08-06T13:06:08;17.60;72.20
78876;DHT22;68253;52.506;5.486;2023-08-06T13:08:36;17.80;71.50
78876;DHT22;68253;52.506;5.486;2023-08-06T13:11:02;18.00;71.20
78876;DHT22;68253;52.506;5.486;2023-08-06T13:13:28;18.10;71.00
78876;DHT22;68253;52.506;5.486;2023-08-06T13:15:54;18.30;70.50
78876;DHT22;68253;52.506;5.486;2023-08-06T13:18:20;18.40;69.70
78876;DHT22;68253;52.506;5.486;2023-08-06T13:20:46;18.60;69.70
78876;DHT22;68253;52.506;5.486;2023-08-06T13:23:15;18.70;69.50
78876;DHT22;68253;52.506;5.486;2023-08-06T13:25:42;18.90;69.40
78876;DHT22;68253;52.506;5.486;2023-08-06T13:28:08;19.10;68.40
78876;DHT22;68253;52.506;5.486;2023-08-06T13:30:35;19.30;68.70
78876;DHT22;68253;52.506;5.486;2023-08-06T13:33:08;19.50;68.30
78876;DHT22;68253;52.506;5.486;2023-08-06T13:35:34;19.70;68.00
78876;DHT22;68253;52.506;5.486;2023-08-06T13:38:00;19.90;67.90
78876;DHT22;68253;52.506;5.486;2023-08-06T13:40:32;19.90;67.50
78876;DHT22;68253;52.506;5.486;2023-08-06T13:42:58;20.00;67.20
78876;DHT22;68253;52.506;5.486;2023-08-06T13:45:24;20.00;67.40
78876;DHT22;68253;52.506;5.486;2023-08-06T13:47:50;20.10;66.70
78876;DHT22;68253;52.506;5.486;2023-08-06T13:50:17;20.10;67.20
78876;DHT22;68253;52.506;5.486;2023-08-06T13:52:43;20.20;67.10
78876;DHT22;68253;52.506;5.486;2023-08-06T13:55:09;20.30;66.80
78876;DHT22;68253;52.506;5.486;2023-08-06T13:57:35;20.30;66.40
78876;DHT22;68253;52.506;5.486;2023-08-06T14:00:02;20.30;65.50
78876;DHT22;68253;52.506;5.486;2023-08-06T14:02:38;20.50;65.90
78876;DHT22;68253;52.506;5.486;2023-08-06T14:05:05;20.70;66.00
78876;DHT22;68253;52.506;5.486;2023-08-06T14:07:31;20.90;66.10
78876;DHT22;68253;52.506;5.486;2023-08-06T14:09:57;21.10;66.10
78876;DHT22;68253;52.506;5.486;2023-08-06T14:12:24;21.40;65.00
78876;DHT22;68253;52.506;5.486;2023-08-06T14:14:50;21.50;64.70
78876;DHT22;68253;52.506;5.486;2023-08-06T14:17:16;21.60;64.60
78876;DHT22;68253;52.506;5.486;2023-08-06T14:19:42;21.70;64.70
78876;DHT22;68253;52.506;5.486;2023-08-06T14:22:08;22.00;64.50
78876;DHT22;68253;52.506;5.486;2023-08-06T14:24:34;22.10;63.70
78876;DHT22;68253;52.506;5.486;2023-08-06T14:27:01;22.00;63.20
78876;DHT22;68253;52.506;5.486;2023-08-06T14:29:29;21.80;63.20
78876;DHT22;68253;52.506;5.486;2023-08-06T14:31:55;21.50;63.70
78876;DHT22;68253;52.506;5.486;2023-08-06T14:34:22;21.10;64.10
78876;DHT22;68253;52.506;5.486;2023-08-06T14:36:48;20.90;64.70
78876;DHT22;68253;52.506;5.486;2023-08-06T14:39:14;20.60;65.00
78876;DHT22;68253;52.506;5.486;2023-08-06T14:41:40;20.30;65.20
78876;DHT22;68253;52.506;5.486;2023-08-06T14:44:06;20.10;65.90
78876;DHT22;68253;52.506;5.486;2023-08-06T14:46:33;20.00;66.20
78876;DHT22;68253;52.506;5.486;2023-08-06T14:48:59;20.00;66.70
78876;DHT22;68253;52.506;5.486;2023-08-06T14:51:25;19.90;66.80
78876;DHT22;68253;52.506;5.486;2023-08-06T14:53:52;20.00;67.00
78876;DHT22;68253;52.506;5.486;2023-08-06T14:56:18;19.90;66.90
78876;DHT22;68253;52.506;5.486;2023-08-06T14:58:44;19.80;66.40
78876;DHT22;68253;52.506;5.486;2023-08-06T15:01:10;19.60;66.60
78876;DHT22;68253;52.506;5.486;2023-08-06T15:03:36;19.40;66.50
78876;DHT22;68253;52.506;5.486;2023-08-06T15:06:02;19.10;67.10
78876;DHT22;68253;52.506;5.486;2023-08-06T15:08:29;18.80;67.60
78876;DHT22;68253;52.506;5.486;2023-08-06T15:10:55;18.60;68.20
78876;DHT22;68253;52.506;5.486;2023-08-06T15:13:21;18.40;68.80
78876;DHT22;68253;52.506;5.486;2023-08-06T15:15:48;18.20;69.50
78876;DHT22;68253;52.506;5.486;2023-08-06T15:18:14;18.00;70.00
78876;DHT22;68253;52.506;5.486;2023-08-06T15:20:40;17.80;70.50
78876;DHT22;68253;52.506;5.486;2023-08-06T15:23:06;17.80;71.10
78876;DHT22;68253;52.506;5.486;2023-08-06T15:25:33;17.70;71.00
78876;DHT22;68253;52.506;5.486;2023-08-06T15:27:59;17.50;71.10
78876;DHT22;68253;52.506;5.486;2023-08-06T15:30:25;17.50;71.50
78876;DHT22;68253;52.506;5.486;2023-08-06T15:32:51;17.50;71.60
78876;DHT22;68253;52.506;5.486;2023-08-06T15:35:17;17.50;71.70
78876;DHT22;68253;52.506;5.486;2023-08-06T15:37:43;17.50;71.30
78876;DHT22;68253;52.506;5.486;2023-08-06T15:40:10;17.40;70.90